Time;durP1;ratioP1;P1;durP2;ratioP2;P2;SDS_P1;SDS_P2;PMS_P1;PMS_P2;Temp;Humidity;BMP_temperature;BMP_pressure;BME280_temperature;BME280_humidity;BME280_pressure;Samples;Min_cycle;Max_cycle;Signal;HPM_P1;HPM_P2
2023/10/27 00:01:13;;;;;;;25.42;15.00;;;;;;;8.42;82.85;96587.16;5069458;28;20028;-82
2023/10/27 00:03:39;;;;;;;31.33;16.25;;;;;;;8.46;82.63;96588.16;5069558;28;20124;-82
2023/10/27 00:06:04;;;;;;;22.52;14.35;;;;;;;8.45;82.88;96596.41;5073091;28;20020;-82
2023/10/27 00:08:30;;;;;;;25.92;16.42;;;;;;;8.47;83.01;96616.31;5087557;28;20085;-82
2023/10/27 00:10:55;;;;;;;26.63;15.35;;;;;;;8.39;83.36;96597.59;5073965;28;20110;-82
2023/10/27 00:13:20;;;;;;;24.95;13.80;;;;;;;8.29;83.45;96585.22;5082614;28;20468;-82
2023/10/27 00:15:46;;;;;;;25.63;14.68;;;;;;;8.27;83.28;96587.38;5070053;28;23199;-82
2023/10/27 00:18:12;;;;;;;23.58;14.32;;;;;;;8.34;84.06;96584.38;5072419;28;20027;-82
2023/10/27 00:20:38;;;;;;;25.60;15.13;;;;;;;8.35;83.56;96578.75;5085328;28;20040;-82
2023/10/27 00:23:04;;;;;;;22.05;13.15;;;;;;;8.40;82.89;96581.34;5080271;28;20118;-81
2023/10/27 00:25:30;;;;;;;22.92;13.80;;;;;;;8.37;83.49;96571.28;5079056;28;20024;-81
2023/10/27 00:27:55;;;;;;;25.75;15.65;;;;;;;8.42;83.88;96581.03;5078549;28;20059;-81
2023/10/27 00:30:20;;;;;;;25.23;14.65;;;;;;;8.32;84.04;96565.25;5076364;28;20491;-81
2023/10/27 00:32:47;;;;;;;27.50;14.93;;;;;;;8.32;83.64;96566.06;5079166;28;20352;-81
2023/10/27 00:35:12;;;;;;;20.70;13.73;;;;;;;8.44;83.51;96574.34;5067857;28;20028;-82
2023/10/27 00:37:38;;;;;;;23.77;13.65;;;;;;;8.40;83.65;96569.91;5109550;27;20031;-81
2023/10/27 00:40:04;;;;;;;25.70;14.75;;;;;;;8.43;83.33;96580.75;5082866;28;20020;-82
2023/10/27 00:42:29;;;;;;;25.48;14.57;;;;;;;8.43;83.51;96590.59;5085187;28;20039;-82
2023/10/27 00:44:55;;;;;;;24.02;14.32;;;;;;;8.31;84.08;96580.41;5085372;28;20116;-82
2023/10/27 00:47:21;;;;;;;26.27;14.98;;;;;;;8.36;83.62;96582.19;5082478;28;20031;-81
2023/10/27 00:49:47;;;;;;;25.10;14.05;;;;;;;8.42;84.08;96589.00;5083583;28;20119;-82
2023/10/27 00:52:13;;;;;;;24.42;14.88;;;;;;;8.41;84.01;96595.44;5066112;28;20076;-82
2023/10/27 00:54:40;;;;;;;23.13;13.82;;;;;;;8.31;83.47;96580.41;5086549;28;20031;-82
2023/10/27 00:57:06;;;;;;;22.25;13.70;;;;;;;8.42;83.96;96586.34;5078756;28;20035;-82
2023/10/27 00:59:32;;;;;;;24.83;15.55;;;;;;;8.42;84.03;96604.97;5085488;28;20376;-82
2023/10/27 01:02:00;;;;;;;26.15;15.52;;;;;;;8.25;84.55;96593.00;5078344;28;20119;-82
2023/10/27 01:04:26;;;;;;;20.88;13.60;;;;;;;8.36;84.72;96604.25;5081266;28;20031;-82
2023/10/27 01:06:53;;;;;;;24.83;14.35;;;;;;;8.36;84.51;96600.81;5068393;28;20028;-82
2023/10/27 01:09:19;;;;;;;27.40;15.55;;;;;;;8.43;84.10;96604.66;5065717;28;20025;-82
2023/10/27 01:11:45;;;;;;;24.10;14.90;;;;;;;8.46;83.98;96611.28;5078569;28;20098;-82
2023/10/27 01:14:11;;;;;;;24.15;14.95;;;;;;;8.45;83.51;96589.25;5084281;28;20019;-82
2023/10/27 01:16:36;;;;;;;25.83;14.95;;;;;;;8.44;83.84;96586.84;5081035;28;20117;-82
2023/10/27 01:19:02;;;;;;;26.52;15.02;;;;;;;8.46;83.64;96608.63;5068354;28;20095;-82
2023/10/27 01:21:28;;;;;;;22.17;14.50;;;;;;;8.40;84.18;96609.78;5082526;28;20036;-81
2023/10/27 01:23:53;;;;;;;25.20;15.52;;;;;;;8.34;84.41;96602.97;5086017;28;20028;-82
2023/10/27 01:26:19;;;;;;;28.77;16.33;;;;;;;8.19;84.95;96611.94;5081837;28;20043;-82
2023/10/27 01:28:44;;;;;;;23.73;15.32;;;;;;;8.14;86.28;96609.34;5082101;28;20039;-82
2023/10/27 01:31:09;;;;;;;22.05;14.40;;;;;;;8.31;85.76;96601.66;5087723;28;20104;-82
2023/10/27 01:33:35;;;;;;;23.23;14.52;;;;;;;8.27;86.01;96606.00;5083644;28;20113;-82
2023/10/27 01:36:00;;;;;;;26.63;14.88;;;;;;;8.22;85.85;96596.19;5087675;28;20464;-81
2023/10/27 01:38:25;;;;;;;21.67;13.68;;;;;;;8.36;85.67;96598.16;5060932;28;20043;-82
2023/10/27 01:40:51;;;;;;;25.05;15.60;;;;;;;8.30;85.48;96586.78;5055423;28;20039;-82
2023/10/27 01:43:16;;;;;;;22.08;14.18;;;;;;;8.32;85.67;96590.75;5064179;28;20408;-83
2023/10/27 01:45:42;;;;;;;20.15;13.18;;;;;;;8.28;86.40;96597.72;5069946;28;20043;-83
2023/10/27 01:48:07;;;;;;;31.30;14.65;;;;;;;7.49;88.70;96577.25;5072806;28;20138;-83
2023/10/27 01:50:32;;;;;;;27.48;15.15;;;;;;;7.72;88.65;96585.47;5051482;28;20031;-82
2023/10/27 01:52:58;;;;;;;26.70;15.27;;;;;;;7.99;87.79;96572.34;5074626;28;20032;-82
2023/10/27 01:55:24;;;;;;;25.60;14.00;;;;;;;8.06;87.19;96570.91;5052981;28;20048;-82
2023/10/27 01:57:49;;;;;;;25.88;15.20;;;;;;;8.17;86.32;96574.19;5056291;28;20326;-82
2023/10/27 02:00:15;;;;;;;21.05;13.60;;;;;;;8.20;86.18;96581.59;5089845;28;20550;-82
2023/10/27 02:02:40;;;;;;;23.17;14.80;;;;;;;8.21;86.70;96575.22;5087361;28;20526;-82
2023/10/27 02:05:07;;;;;;;23.58;13.88;;;;;;;8.18;86.46;96568.63;5073817;28;20027;-82
2023/10/27 02:07:33;;;;;;;27.35;15.20;;;;;;;8.20;86.13;96581.59;5086549;28;20111;-81
2023/10/27 02:09:59;;;;;;;22.08;13.55;;;;;;;8.31;85.31;96572.44;5070992;28;20107;-82
2023/10/27 02:12:27;;;;;;;22.83;14.32;;;;;;;8.35;85.13;96575.28;5083735;28;20032;-82
2023/10/27 02:14:53;;;;;;;21.88;13.77;;;;;;;8.35;85.70;96576.09;5091148;28;20387;-82
2023/10/27 02:17:18;;;;;;;27.10;15.93;;;;;;;8.15;85.72;96563.06;5085565;28;20041;-82
2023/10/27 02:19:44;;;;;;;25.20;14.57;;;;;;;8.14;86.24;96572.13;5085726;28;20395;-82
2023/10/27 02:22:09;;;;;;;21.23;14.30;;;;;;;8.23;85.75;96573.06;5090556;28;20035;-82
2023/10/27 02:24:37;;;;;;;21.27;13.55;;;;;;;8.35;85.90;96570.78;5073132;28;20150;-82
2023/10/27 02:27:03;;;;;;;24.27;14.45;;;;;;;8.39;85.45;96573.66;5086081;28;20039;-82
2023/10/27 02:29:29;;;;;;;21.58;13.65;;;;;;;8.24;85.88;96558.69;5088608;28;20016;-82
2023/10/27 02:31:54;;;;;;;23.90;15.40;;;;;;;8.35;85.35;96551.38;5085938;28;20066;-82
2023/10/27 02:34:19;;;;;;;25.75;13.93;;;;;;;8.28;86.00;96554.41;5058211;28;20055;-82
2023/10/27 02:36:45;;;;;;;22.83;12.77;;;;;;;8.32;86.08;96560.75;5053812;28;20373;-82
2023/10/27 02:39:10;;;;;;;22.27;14.07;;;;;;;8.19;86.08;96551.59;5085514;28;20024;-82
2023/10/27 02:41:36;;;;;;;23.02;15.00;;;;;;;8.24;86.06;96548.84;5071448;28;20024;-82
2023/10/27 02:44:01;;;;;;;22.60;13.85;;;;;;;8.19;87.01;96545.50;5085651;28;20101;-82
2023/10/27 02:46:26;;;;;;;23.77;14.05;;;;;;;8.05;86.38;96523.38;5072343;28;20029;-82
2023/10/27 02:48:52;;;;;;;24.17;14.63;;;;;;;8.23;86.65;96549.16;5074405;28;20085;-82
2023/10/27 02:51:18;;;;;;;22.58;13.05;;;;;;;8.17;86.93;96537.00;5083673;28;20093;-82
2023/10/27 02:53:45;;;;;;;21.48;13.68;;;;;;;8.24;86.52;96548.06;5052072;28;20456;-82
2023/10/27 02:56:10;;;;;;;22.88;14.70;;;;;;;8.29;87.10;96550.69;5078079;28;20169;-82
2023/10/27 02:58:36;;;;;;;24.20;14.73;;;;;;;8.28;86.12;96544.56;5082847;28;20115;-82
2023/10/27 03:01:09;;;;;;;20.95;13.85;;;;;;;8.36;86.28;96552.97;5087028;28;20032;-82
2023/10/27 03:03:36;;;;;;;21.60;13.23;;;;;;;8.18;86.78;96530.63;5082362;28;20376;-82
2023/10/27 03:06:02;;;;;;;23.35;14.77;;;;;;;8.29;86.50;96540.06;5080271;28;20519;-82
2023/10/27 03:08:27;;;;;;;23.42;13.13;;;;;;;8.26;86.53;96535.31;5082840;28;20392;-82
2023/10/27 03:10:52;;;;;;;20.90;13.77;;;;;;;8.34;86.36;96529.34;5051785;28;20028;-82
2023/10/27 03:13:18;;;;;;;27.42;14.55;;;;;;;8.22;86.74;96524.44;5077597;28;20118;-82
2023/10/27 03:15:44;;;;;;;23.13;14.45;;;;;;;8.30;86.41;96530.97;5084306;28;20024;-81
2023/10/27 03:18:10;;;;;;;24.63;14.45;;;;;;;8.41;86.14;96534.28;5087273;28;20307;-82
2023/10/27 03:20:35;;;;;;;19.58;12.43;;;;;;;8.35;86.47;96519.47;5076915;28;20488;-82
2023/10/27 03:23:01;;;;;;;24.38;13.95;;;;;;;8.36;86.62;96527.19;5085306;28;20039;-82
2023/10/27 03:25:26;;;;;;;22.67;13.68;;;;;;;8.31;86.82;96519.28;5074494;28;20024;-82
2023/10/27 03:27:51;;;;;;;22.48;14.07;;;;;;;8.28;87.08;96522.50;5079356;28;20115;-82
2023/10/27 03:30:17;;;;;;;23.40;14.48;;;;;;;8.27;86.93;96520.94;5071038;28;20101;-82
2023/10/27 03:32:42;;;;;;;23.08;12.95;;;;;;;8.27;86.83;96521.75;5085396;28;20115;-82
2023/10/27 03:35:08;;;;;;;25.58;13.07;;;;;;;8.22;87.38;96508.50;5081410;28;20021;-82
2023/10/27 03:37:33;;;;;;;21.48;13.90;;;;;;;8.21;87.67;96514.88;5077885;28;20044;-82
2023/10/27 03:39:59;;;;;;;18.02;13.13;;;;;;;8.26;87.36;96527.34;5066816;28;20038;-82
2023/10/27 03:42:25;;;;;;;22.50;13.70;;;;;;;8.27;87.82;96531.59;5078583;28;20446;-82
2023/10/27 03:44:50;;;;;;;22.73;13.77;;;;;;;8.26;87.51;96522.00;5051575;28;20043;-82
2023/10/27 03:47:15;;;;;;;23.75;14.50;;;;;;;8.26;87.99;96516.69;5072792;28;20027;-82
2023/10/27 03:49:41;;;;;;;22.73;13.82;;;;;;;8.29;87.47;96521.44;5069239;28;20032;-82
2023/10/27 03:52:09;;;;;;;23.45;13.65;;;;;;;8.27;87.27;96516.44;5054405;28;20122;-82
2023/10/27 03:54:34;;;;;;;23.98;14.55;;;;;;;8.36;87.78;96513.09;5088299;28;20475;-82
2023/10/27 03:57:01;;;;;;;28.35;15.52;;;;;;;8.32;87.76;96518.22;5080642;28;20115;-82
2023/10/27 03:59:27;;;;;;;24.80;15.00;;;;;;;7.87;89.20;96505.59;5085931;28;20528;-82
2023/10/27 04:01:52;;;;;;;29.13;15.38;;;;;;;7.64;90.53;96522.38;5070447;28;20032;-82
2023/10/27 04:04:17;;;;;;;26.65;15.90;;;;;;;7.53;91.66;96516.44;5086382;28;20475;-82
2023/10/27 04:06:43;;;;;;;31.23;17.40;;;;;;;7.43;91.52;96525.31;5052795;28;20043;-82
2023/10/27 04:09:09;;;;;;;28.02;17.27;;;;;;;7.53;91.43;96519.09;5067036;28;20025;-82
2023/10/27 04:11:34;;;;;;;24.83;15.25;;;;;;;7.92;89.79;96524.13;5081194;28;20056;-81
2023/10/27 04:13:59;;;;;;;32.70;17.23;;;;;;;7.88;90.46;96520.47;5076554;28;20028;-81
2023/10/27 04:16:25;;;;;;;26.77;15.02;;;;;;;7.95;90.08;96512.94;5083049;28;20036;-82
2023/10/27 04:18:50;;;;;;;25.85;16.05;;;;;;;7.79;89.87;96519.53;5082957;28;20062;-82
2023/10/27 04:21:15;;;;;;;29.80;17.83;;;;;;;7.29;91.43;96516.47;5083975;28;20063;-82
2023/10/27 04:23:41;;;;;;;33.92;17.52;;;;;;;7.26;92.29;96522.34;5070665;28;20047;-82
2023/10/27 04:26:06;;;;;;;26.63;15.18;;;;;;;7.59;92.63;96517.94;5065554;28;20031;-82
2023/10/27 04:28:32;;;;;;;32.22;16.05;;;;;;;7.43;90.82;96496.13;5067157;28;20025;-82
2023/10/27 04:30:58;;;;;;;35.03;17.35;;;;;;;7.45;91.65;96504.56;5083501;28;20059;-82
2023/10/27 04:33:24;;;;;;;31.77;15.73;;;;;;;7.90;91.09;96510.34;5082985;28;20028;-82
2023/10/27 04:35:50;;;;;;;33.88;18.95;;;;;;;7.61;90.93;96525.59;5069371;28;20036;-82
2023/10/27 04:38:15;;;;;;;38.95;19.92;;;;;;;7.17;92.06;96529.34;5074252;28;20039;-81
2023/10/27 04:40:41;;;;;;;34.47;18.10;;;;;;;7.20;92.75;96528.78;5082054;28;20407;-82
2023/10/27 04:43:06;;;;;;;34.60;19.40;;;;;;;7.01;93.92;96519.97;5084599;28;20046;-82
2023/10/27 04:45:31;;;;;;;41.60;20.38;;;;;;;6.94;93.97;96524.03;5082588;28;20028;-81
2023/10/27 04:47:57;;;;;;;36.90;19.73;;;;;;;6.70;94.74;96519.53;5085337;28;20055;-82
2023/10/27 04:50:22;;;;;;;37.00;21.02;;;;;;;7.12;94.27;96521.44;5048741;28;20028;-82
2023/10/27 04:52:48;;;;;;;35.85;19.60;;;;;;;6.87;94.36;96520.94;5079187;28;20035;-82
2023/10/27 04:55:13;;;;;;;40.13;20.70;;;;;;;6.61;94.97;96515.09;5083069;28;20035;-82
2023/10/27 04:57:39;;;;;;;35.78;18.77;;;;;;;6.68;96.71;96521.63;5067935;28;20025;-81
2023/10/27 05:00:05;;;;;;;37.13;19.90;;;;;;;6.87;95.52;96508.47;5066771;28;20050;-81
2023/10/27 05:02:31;;;;;;;35.53;19.85;;;;;;;7.28;93.73;96504.28;5078537;28;20039;-84
2023/10/27 05:04:56;;;;;;;43.50;21.13;;;;;;;6.94;93.67;96511.59;5074945;28;20889;-82
2023/10/27 05:07:22;;;;;;;38.55;20.30;;;;;;;6.88;94.84;96514.56;5061152;28;20498;-82
2023/10/27 05:09:47;;;;;;;38.70;21.00;;;;;;;6.86;95.04;96511.41;5056045;28;20059;-82
2023/10/27 05:12:13;;;;;;;36.08;19.80;;;;;;;7.04;94.75;96508.00;5081312;28;20036;-82
2023/10/27 05:14:39;;;;;;;36.47;19.45;;;;;;;7.20;94.37;96506.78;5085414;28;20107;-82
2023/10/27 05:17:04;;;;;;;34.60;18.17;;;;;;;7.41;93.70;96500.13;5079665;28;20202;-83
2023/10/27 05:19:30;;;;;;;34.58;18.58;;;;;;;7.70;92.47;96486.72;5066489;28;20063;-83
2023/10/27 05:21:56;;;;;;;32.63;18.38;;;;;;;8.01;90.78;96499.28;5068664;28;20031;-83
2023/10/27 05:24:22;;;;;;;30.65;16.90;;;;;;;8.11;90.20;96501.78;5082905;28;20044;-82
2023/10/27 05:26:47;;;;;;;32.08;18.00;;;;;;;8.17;90.10;96505.91;5065898;28;20919;-83
2023/10/27 05:29:12;;;;;;;25.42;15.23;;;;;;;8.20;90.26;96507.22;5087310;28;20077;-82
2023/10/27 05:31:39;;;;;;;27.08;16.17;;;;;;;8.21;89.25;96504.25;5086789;28;20032;-83
2023/10/27 05:34:05;;;;;;;27.35;16.55;;;;;;;8.13;89.40;96494.28;5072434;28;20028;-83
2023/10/27 05:36:30;;;;;;;24.88;14.32;;;;;;;8.22;89.54;96503.19;5079125;28;20034;-82
2023/10/27 05:38:56;;;;;;;25.75;15.88;;;;;;;8.27;89.83;96516.44;5082026;28;20107;-83
2023/10/27 05:41:21;;;;;;;28.80;18.13;;;;;;;8.20;89.03;96496.56;5087642;28;20111;-82
2023/10/27 05:43:46;;;;;;;29.10;18.15;;;;;;;8.32;89.27;96517.44;5082611;28;20021;-83
2023/10/27 05:46:13;;;;;;;28.52;16.67;;;;;;;8.38;89.13;96516.25;5081180;28;20040;-83
2023/10/27 05:48:39;;;;;;;29.13;18.10;;;;;;;8.32;89.08;96502.28;5082311;28;20024;-82
2023/10/27 05:51:04;;;;;;;28.45;17.35;;;;;;;8.34;89.19;96505.44;5084973;28;20036;-82
2023/10/27 05:53:30;;;;;;;33.15;18.13;;;;;;;8.41;89.00;96513.03;5084526;28;20032;-83
2023/10/27 05:55:55;;;;;;;28.00;17.85;;;;;;;8.27;88.94;96494.38;5088931;28;20020;-83
2023/10/27 05:58:20;;;;;;;27.63;16.98;;;;;;;8.43;88.94;96522.25;5082011;28;20039;-83
2023/10/27 06:00:46;;;;;;;24.55;15.88;;;;;;;8.43;88.90;96506.31;5066001;28;20034;-83
2023/10/27 06:03:12;;;;;;;29.77;18.45;;;;;;;8.29;89.00;96513.47;5054113;28;20107;-83
2023/10/27 06:05:37;;;;;;;32.00;18.15;;;;;;;8.31;89.01;96508.66;5079409;28;20119;-83
2023/10/27 06:08:03;;;;;;;31.08;18.10;;;;;;;7.83;90.33;96510.69;5082282;28;20036;-83
2023/10/27 06:10:29;;;;;;;32.33;18.20;;;;;;;7.84;91.56;96500.88;5080429;28;20060;-83
2023/10/27 06:12:55;;;;;;;34.85;18.42;;;;;;;7.81;90.69;96501.44;5082451;28;20024;-83
2023/10/27 06:15:20;;;;;;;31.67;18.05;;;;;;;7.98;89.86;96491.88;5085512;28;20035;-83
2023/10/27 06:17:46;;;;;;;28.70;18.35;;;;;;;7.73;91.50;96500.25;5055352;28;20036;-83
2023/10/27 06:20:12;;;;;;;30.02;16.63;;;;;;;8.07;91.16;96500.78;5074697;28;20024;-84
2023/10/27 06:22:38;;;;;;;29.25;17.42;;;;;;;7.58;91.28;96466.72;5056112;28;20039;-84
2023/10/27 06:25:03;;;;;;;30.63;17.15;;;;;;;7.73;91.77;96507.41;5080227;28;20036;-84
2023/10/27 06:27:29;;;;;;;32.97;19.73;;;;;;;7.49;92.29;96502.94;5079826;28;20031;-83
2023/10/27 06:29:56;;;;;;;27.80;17.33;;;;;;;7.81;92.44;96507.53;5084077;28;20024;-83
2023/10/27 06:32:23;;;;;;;25.98;16.83;;;;;;;8.07;90.88;96506.09;5089735;28;20556;-83
2023/10/27 06:34:48;;;;;;;25.55;16.02;;;;;;;8.23;90.66;96512.72;5082357;28;20467;-83
2023/10/27 06:37:14;;;;;;;24.77;15.95;;;;;;;8.19;89.86;96503.00;5069371;28;20032;-83
2023/10/27 06:39:39;;;;;;;24.60;15.98;;;;;;;8.34;89.91;96517.91;5083209;28;20036;-83
2023/10/27 06:42:05;;;;;;;24.27;16.05;;;;;;;8.35;90.15;96519.47;5076389;28;20038;-83
2023/10/27 06:44:30;;;;;;;26.55;15.50;;;;;;;8.37;89.49;96512.81;5069409;28;20047;-84
2023/10/27 06:46:56;;;;;;;24.95;15.27;;;;;;;8.38;90.01;96527.69;5059978;28;20032;-83
2023/10/27 06:49:21;;;;;;;26.30;14.98;;;;;;;8.38;89.42;96526.88;5077183;28;20024;-83
2023/10/27 06:51:47;;;;;;;27.63;15.43;;;;;;;8.41;90.10;96529.75;5080983;28;20054;-83
2023/10/27 06:54:13;;;;;;;21.08;13.95;;;;;;;8.44;89.30;96533.69;5085694;28;20381;-83
2023/10/27 06:56:39;;;;;;;23.67;16.17;;;;;;;8.36;89.71;96529.84;5054085;28;20027;-83
2023/10/27 06:59:04;;;;;;;21.17;15.15;;;;;;;8.47;89.94;96541.09;5086258;28;20032;-84
2023/10/27 07:01:29;;;;;;;21.90;14.95;;;;;;;8.56;89.23;96534.03;5083862;28;20107;-83
2023/10/27 07:03:55;;;;;;;27.02;16.73;;;;;;;8.49;89.62;96526.44;5090487;28;20115;-83
2023/10/27 07:06:20;;;;;;;24.40;16.23;;;;;;;8.53;89.33;96532.75;5079378;28;20032;-83
2023/10/27 07:08:46;;;;;;;28.98;16.98;;;;;;;8.55;89.16;96540.41;5079408;28;20468;-83
2023/10/27 07:11:11;;;;;;;28.88;17.67;;;;;;;8.53;89.28;96534.59;5077929;28;20078;-84
2023/10/27 07:13:36;;;;;;;30.48;17.25;;;;;;;8.54;89.70;96523.66;5076264;28;20082;-84
2023/10/27 07:16:02;;;;;;;29.85;17.15;;;;;;;8.56;89.50;96532.16;5069917;28;20024;-84
2023/10/27 07:18:28;;;;;;;30.20;18.40;;;;;;;8.54;90.27;96523.66;5070968;28;20033;-83
2023/10/27 07:20:53;;;;;;;27.05;17.15;;;;;;;8.62;89.15;96538.97;5082728;28;20531;-84
2023/10/27 07:23:19;;;;;;;24.08;15.82;;;;;;;8.67;89.41;96541.53;5066285;28;20042;-83
2023/10/27 07:25:45;;;;;;;26.92;16.45;;;;;;;8.61;89.44;96542.69;5067549;28;20384;-83
2023/10/27 07:28:12;;;;;;;31.70;18.20;;;;;;;8.65;89.46;96549.00;5078624;28;20479;-84
2023/10/27 07:30:38;;;;;;;31.98;17.60;;;;;;;8.64;89.54;96549.31;5074454;28;20545;-83
2023/10/27 07:33:04;;;;;;;26.83;16.88;;;;;;;8.66;89.35;96549.81;5079262;28;20031;-84
2023/10/27 07:35:31;;;;;;;25.20;16.15;;;;;;;8.53;89.48;96529.28;5088786;28;20028;-84
2023/10/27 07:37:58;;;;;;;28.92;17.33;;;;;;;8.66;89.95;96553.25;5081437;28;20462;-84
2023/10/27 07:40:23;;;;;;;29.60;16.60;;;;;;;8.73;89.75;96555.53;5082867;28;20124;-84
2023/10/27 07:42:49;;;;;;;31.05;17.00;;;;;;;8.68;89.56;96551.09;5086994;28;20118;-84
2023/10/27 07:45:14;;;;;;;28.65;17.05;;;;;;;8.71;90.18;96563.81;5076539;28;20067;-83
2023/10/27 07:47:40;;;;;;;26.67;17.52;;;;;;;8.68;90.16;96552.97;5075977;28;20085;-84
2023/10/27 07:50:06;;;;;;;27.10;16.50;;;;;;;8.71;90.19;96549.72;5076738;28;20024;-84
2023/10/27 07:52:32;;;;;;;27.27;16.90;;;;;;;8.72;90.17;96554.75;5064630;28;20467;-84
2023/10/27 07:54:58;;;;;;;27.90;17.42;;;;;;;8.72;90.45;96557.41;5078670;28;21546;-84
2023/10/27 07:57:24;;;;;;;28.98;17.48;;;;;;;8.80;89.46;96540.75;5078848;28;20119;-84
2023/10/27 07:59:49;;;;;;;27.15;17.10;;;;;;;8.67;90.00;96546.84;5076509;28;20123;-83
2023/10/27 08:02:15;;;;;;;30.98;17.95;;;;;;;8.75;90.27;96554.16;5065537;28;20043;-83
2023/10/27 08:04:40;;;;;;;31.20;17.05;;;;;;;8.76;89.94;96557.59;5065054;28;20032;-83
2023/10/27 08:07:06;;;;;;;30.38;17.00;;;;;;;8.71;89.37;96536.44;5074794;28;20026;-83
2023/10/27 08:09:31;;;;;;;30.63;18.55;;;;;;;8.76;90.11;96549.63;5075008;28;20024;-83
2023/10/27 08:11:57;;;;;;;27.95;16.80;;;;;;;8.79;90.09;96559.69;5082042;28;20039;-84
2023/10/27 08:14:23;;;;;;;35.17;18.70;;;;;;;8.84;89.83;96551.63;5065482;28;20074;-83
2023/10/27 08:16:49;;;;;;;31.17;19.35;;;;;;;8.69;90.55;96542.03;5083758;28;20036;-84
2023/10/27 08:19:14;;;;;;;32.90;17.48;;;;;;;8.82;89.99;96551.13;5084409;28;20066;-83
2023/10/27 08:21:41;;;;;;;34.60;18.40;;;;;;;8.89;89.90;96549.66;5053202;28;20048;-84
2023/10/27 08:24:07;;;;;;;33.55;19.30;;;;;;;8.86;89.79;96549.47;5068312;28;20032;-84
2023/10/27 08:26:32;;;;;;;33.00;19.88;;;;;;;8.98;89.75;96547.09;5078046;28;20051;-83
2023/10/27 08:28:58;;;;;;;32.35;18.38;;;;;;;8.85;90.80;96559.31;5046646;28;20442;-84
2023/10/27 08:31:24;;;;;;;35.22;18.55;;;;;;;8.85;90.81;96546.00;5082214;28;20123;-84
2023/10/27 08:33:49;;;;;;;34.28;17.92;;;;;;;8.99;89.90;96549.50;5063910;28;20043;-84
2023/10/27 08:36:15;;;;;;;28.17;17.33;;;;;;;9.00;90.19;96545.72;5069441;28;20036;-83
2023/10/27 08:38:41;;;;;;;38.20;19.45;;;;;;;8.97;90.59;96540.22;5080299;28;20480;-84
2023/10/27 08:41:07;;;;;;;32.97;18.70;;;;;;;9.06;89.96;96538.44;5076362;28;20035;-83
2023/10/27 08:43:34;;;;;;;27.30;16.95;;;;;;;9.08;89.60;96528.31;5078230;28;20086;-84
2023/10/27 08:46:03;;;;;;;31.25;17.35;;;;;;;9.14;89.82;96535.09;5065374;28;20036;-84
2023/10/27 08:48:29;;;;;;;29.60;16.67;;;;;;;9.01;91.04;96523.38;5071424;28;20377;-83
2023/10/27 08:50:55;;;;;;;32.15;17.52;;;;;;;9.30;89.50;96543.59;5053774;28;20063;-84
2023/10/27 08:53:22;;;;;;;33.85;17.65;;;;;;;9.24;89.45;96536.78;5082755;28;20074;-84
2023/10/27 08:55:48;;;;;;;31.23;17.30;;;;;;;9.24;89.67;96532.22;5076041;28;20035;-83
2023/10/27 08:58:14;;;;;;;29.48;17.15;;;;;;;9.19;89.30;96520.91;5076839;28;20032;-84
2023/10/27 09:00:39;;;;;;;33.05;17.10;;;;;;;9.26;90.99;96542.59;5077750;28;20085;-84
2023/10/27 09:03:15;;;;;;;31.83;18.45;;;;;;;9.38;89.06;96542.88;5070601;28;20490;-84
2023/10/27 09:05:41;;;;;;;33.30;18.15;;;;;;;9.30;89.37;96535.59;5081451;28;20029;-83
2023/10/27 09:08:06;;;;;;;30.42;17.80;;;;;;;9.36;89.08;96548.50;5078436;28;20081;-84
2023/10/27 09:10:32;;;;;;;39.25;21.98;;;;;;;9.33;90.18;96542.97;5058073;28;20046;-84
2023/10/27 09:12:59;;;;;;;35.38;18.35;;;;;;;9.29;89.50;96526.03;5080470;28;20047;-83
2023/10/27 09:15:25;;;;;;;30.70;17.83;;;;;;;9.43;89.40;96540.91;5073918;28;20051;-84
2023/10/27 09:17:56;;;;;;;37.05;19.23;;;;;;;9.48;89.98;96537.38;5082334;28;20452;-84
2023/10/27 09:20:26;;;;;;;33.65;18.83;;;;;;;9.26;92.94;96538.03;5084620;28;20456;-83
2023/10/27 09:22:59;;;;;;;38.90;19.17;;;;;;;9.18;95.42;96538.75;5065539;28;20030;-83
2023/10/27 09:25:32;;;;;;;39.90;19.27;;;;;;;9.03;94.74;96526.53;5073550;28;20036;-84
2023/10/27 09:27:59;;;;;;;37.20;19.92;;;;;;;9.17;95.15;96536.38;5074807;28;20036;-83
2023/10/27 09:30:26;;;;;;;34.40;18.15;;;;;;;9.57;89.97;96522.25;5075156;28;20043;-83
2023/10/27 09:32:52;;;;;;;31.00;18.58;;;;;;;9.52;90.86;96536.44;5055895;28;20418;-83
2023/10/27 09:35:18;;;;;;;29.33;16.63;;;;;;;9.63;89.52;96545.81;5073310;28;20090;-83
2023/10/27 09:37:46;;;;;;;35.15;16.52;;;;;;;9.74;88.47;96543.75;5079032;28;20140;-83
2023/10/27 09:40:13;;;;;;;27.10;15.38;;;;;;;9.74;87.94;96551.72;5047350;28;20051;-84
2023/10/27 09:42:39;;;;;;;32.83;16.48;;;;;;;9.67;88.49;96533.50;5072197;28;20056;-83
2023/10/27 09:45:12;;;;;;;26.08;15.10;;;;;;;9.76;88.27;96544.22;5078326;28;20156;-83
2023/10/27 09:47:40;;;;;;;29.00;15.73;;;;;;;9.87;87.79;96564.25;5061019;28;20047;-83
2023/10/27 09:50:08;;;;;;;29.33;16.13;;;;;;;9.64;90.86;96549.25;5075064;28;20031;-83
2023/10/27 09:52:34;;;;;;;24.00;15.45;;;;;;;9.75;89.03;96556.75;5075358;28;20051;-84
2023/10/27 09:55:03;;;;;;;26.25;14.95;;;;;;;9.80;87.92;96558.53;5077842;28;20545;-84
2023/10/27 09:57:29;;;;;;;28.13;15.43;;;;;;;9.88;88.36;96562.34;5077745;28;20044;-84
2023/10/27 09:59:56;;;;;;;27.90;14.77;;;;;;;9.81;88.33;96560.88;5076476;28;20029;-84
2023/10/27 10:02:23;;;;;;;35.65;19.38;;;;;;;9.58;91.40;96572.56;5043013;28;20024;-84
2023/10/27 10:04:51;;;;;;;31.15;17.90;;;;;;;9.60;91.79;96573.06;5075749;28;20605;-84
2023/10/27 10:07:52;;;;;;;30.60;16.48;;;;;;;9.91;88.70;96570.53;5078897;28;20683;-84
2023/10/27 10:10:33;;;;;;;28.05;15.13;;;;;;;9.82;88.28;96575.78;5078286;28;20045;-84
2023/10/27 10:13:02;;;;;;;31.90;17.05;;;;;;;9.86;88.76;96577.84;5075115;28;20163;-84
2023/10/27 10:15:30;;;;;;;28.67;15.57;;;;;;;9.86;88.58;96575.16;5076977;28;20136;-83
2023/10/27 10:17:56;;;;;;;26.60;13.95;;;;;;;9.84;89.73;96572.81;5063594;28;20412;-84
2023/10/27 10:20:58;;;;;;;27.75;15.20;;;;;;;9.98;87.90;96578.88;5087823;28;20055;-84
2023/10/27 10:23:44;;;;;;;25.77;16.30;;;;;;;9.79;90.63;96578.25;5047060;28;20051;-84
2023/10/27 10:26:10;;;;;;;27.45;16.45;;;;;;;9.62;91.08;96573.53;5069462;28;20070;-83
2023/10/27 10:28:40;;;;;;;25.45;15.18;;;;;;;9.91;89.43;96575.06;5080073;28;20040;-84
2023/10/27 10:31:09;;;;;;;25.02;15.65;;;;;;;9.98;88.31;96570.13;5064026;28;20055;-83
2023/10/27 10:33:36;;;;;;;26.20;14.75;;;;;;;10.00;88.26;96563.41;5079839;28;20241;-84
2023/10/27 10:36:14;;;;;;;32.75;15.95;;;;;;;9.98;88.77;96562.91;5079850;28;20035;-83
2023/10/27 10:38:44;;;;;;;28.75;15.93;;;;;;;9.93;88.88;96560.38;5078827;28;20065;-82
2023/10/27 10:41:10;;;;;;;33.67;18.83;;;;;;;9.83;91.77;96563.22;5088261;28;20544;-83
2023/10/27 10:43:42;;;;;;;25.90;15.05;;;;;;;9.83;92.10;96558.69;5084439;28;20024;-83
2023/10/27 10:46:12;;;;;;;29.15;16.45;;;;;;;9.87;92.50;96556.25;5066400;28;20093;-83
2023/10/27 10:48:52;;;;;;;30.40;15.90;;;;;;;9.78;93.29;96566.03;5072090;28;20380;-83
2023/10/27 10:51:29;;;;;;;22.23;14.52;;;;;;;9.89;91.57;96553.28;5081583;28;20020;-83
2023/10/27 10:53:55;;;;;;;27.67;16.33;;;;;;;9.73;92.42;96555.47;5081447;28;20040;-83
2023/10/27 10:56:24;;;;;;;28.75;17.05;;;;;;;9.60;93.86;96559.72;5066505;28;20115;-82
2023/10/27 10:58:50;;;;;;;29.98;17.23;;;;;;;9.51;94.73;96558.06;5085011;28;20548;-82
2023/10/27 11:01:19;;;;;;;27.95;14.18;;;;;;;9.87;90.87;96552.78;5083350;28;20024;-83
2023/10/27 11:03:47;;;;;;;26.85;15.13;;;;;;;9.97;90.92;96563.22;5090697;28;20032;-82
2023/10/27 11:06:12;;;;;;;27.95;15.52;;;;;;;9.37;94.08;96550.06;5068223;28;20483;-81
2023/10/27 11:08:38;;;;;;;28.23;16.30;;;;;;;9.58;94.46;96566.44;5055993;28;20028;-82
2023/10/27 11:11:09;;;;;;;24.30;14.25;;;;;;;9.97;90.96;96557.88;5056017;28;20074;-82
2023/10/27 11:13:43;;;;;;;29.63;17.50;;;;;;;9.76;92.36;96558.31;5079675;28;20075;-82
2023/10/27 11:16:16;;;;;;;30.70;16.85;;;;;;;9.60;94.40;96558.94;5080232;28;20476;-82
2023/10/27 11:18:44;;;;;;;28.75;16.00;;;;;;;9.69;94.16;96557.16;5086960;28;20039;-82
2023/10/27 11:21:21;;;;;;;30.83;16.05;;;;;;;9.63;94.71;96545.81;5088266;28;20115;-82